createdAt,value
2022-08-03T04:02:30.714Z,100888.28
2022-08-03T04:05:16.006Z,100891.00
2022-08-03T04:08:12.888Z,100885.47
2022-08-03T04:11:01.436Z,100887.16
2022-08-03T04:13:34.227Z,100892.34
2022-08-03T04:16:02.867Z,100891.53
2022-08-03T04:18:34.886Z,100896.50
2022-08-03T04:21:05.250Z,100891.28
2022-08-03T04:23:36.665Z,100898.16
2022-08-03T04:26:09.544Z,100904.53
2022-08-03T04:28:40.475Z,100908.09
2022-08-03T04:31:08.894Z,100911.13
2022-08-03T04:33:40.243Z,100902.31
2022-08-03T04:36:09.762Z,100916.34
2022-08-03T04:38:44.643Z,100910.31
2022-08-03T04:41:12.958Z,100916.34
2022-08-03T04:43:41.722Z,100909.50
2022-08-03T04:46:10.818Z,100914.72
2022-08-03T04:48:43.534Z,100915.31
2022-08-03T04:51:13.178Z,100917.22
2022-08-03T04:53:41.062Z,100923.56
2022-08-03T04:56:09.476Z,100914.25
2022-08-03T04:58:37.336Z,100910.13
2022-08-03T05:01:05.022Z,100915.09
2022-08-03T05:03:32.671Z,100922.28
2022-08-03T05:06:10.063Z,100921.44
2022-08-03T05:08:46.149Z,100915.41
2022-08-03T05:11:14.886Z,100919.25
2022-08-03T05:13:42.607Z,100916.00
2022-08-03T05:16:10.202Z,100923.72
2022-08-03T05:18:37.857Z,100920.69
2022-08-03T05:21:06.780Z,100919.03
2022-08-03T05:23:34.495Z,100911.06
2022-08-03T05:26:02.105Z,100915.19
2022-08-03T05:28:29.787Z,100921.81
2022-08-03T05:30:58.209Z,100924.88
2022-08-03T05:33:25.822Z,100913.56
2022-08-03T05:36:02.727Z,100910.53
2022-08-03T05:38:35.023Z,100905.31
2022-08-03T05:41:21.523Z,100913.31
2022-08-03T05:43:52.214Z,100916.38
2022-08-03T05:46:20.782Z,100910.03
2022-08-03T05:48:48.726Z,100907.28
2022-08-03T05:51:16.347Z,100904.59
2022-08-03T05:53:45.485Z,100907.91
2022-08-03T05:56:16.030Z,100909.53
2022-08-03T05:58:45.847Z,100910.13
2022-08-03T06:01:13.546Z,100906.53
2022-08-03T06:03:41.392Z,100904.63
2022-08-03T06:06:09.266Z,100910.72
2022-08-03T06:08:36.928Z,100911.00
2022-08-03T06:11:05.922Z,100904.91
2022-08-03T06:13:33.900Z,100904.63
2022-08-03T06:16:02.424Z,100904.66
2022-08-03T06:18:30.043Z,100907.16
2022-08-03T06:20:57.776Z,100904.38
2022-08-03T06:23:53.420Z,100904.66
2022-08-03T06:26:25.860Z,100908.00
2022-08-03T06:28:54.846Z,100912.38
2022-08-03T06:31:32.795Z,100904.13
2022-08-03T06:34:32.872Z,100908.00
2022-08-03T06:36:51.164Z,100913.75
2022-08-03T06:39:20.600Z,100911.53
2022-08-03T06:41:53.428Z,100912.91
2022-08-03T06:44:21.718Z,100915.91
2022-08-03T06:46:49.305Z,100921.13
2022-08-03T06:49:16.967Z,100920.03
2022-08-03T06:52:05.527Z,100916.19
2022-08-03T06:54:33.296Z,100926.66
2022-08-03T06:57:02.357Z,100929.97
2022-08-03T07:00:10.410Z,100933.88
2022-08-03T07:02:19.456Z,100936.34
2022-08-03T07:04:47.737Z,100929.69
2022-08-03T07:07:15.319Z,100923.00
2022-08-03T07:09:42.864Z,100931.00
2022-08-03T07:12:27.761Z,100926.00
2022-08-03T07:14:59.819Z,100920.16
2022-08-03T07:17:29.032Z,100928.13
2022-08-03T07:19:56.637Z,100936.13
2022-08-03T07:22:24.262Z,100928.41
2022-08-03T07:24:51.860Z,100935.56
2022-08-03T07:27:19.529Z,100931.69
2022-08-03T07:29:48.427Z,100933.06
2022-08-03T07:32:16.984Z,100933.03
2022-08-03T07:34:44.791Z,100933.28
2022-08-03T07:37:12.553Z,100939.03
2022-08-03T07:39:40.145Z,100942.03
2022-08-03T07:42:08.061Z,100937.50
2022-08-03T07:44:35.664Z,100932.72
2022-08-03T07:47:04.593Z,100940.97
2022-08-03T07:49:34.017Z,100940.16
2022-08-03T07:52:19.291Z,100945.13
2022-08-03T07:54:46.993Z,100937.84
2022-08-03T07:57:14.556Z,100934.97
2022-08-03T08:00:01.602Z,100937.44
2022-08-03T08:02:31.509Z,100942.63
2022-08-03T08:05:03.501Z,100932.88
2022-08-03T08:07:33.102Z,100940.28
2022-08-03T08:10:00.691Z,100938.59
2022-08-03T08:12:28.287Z,100936.06
2022-08-03T08:14:55.928Z,100931.28
2022-08-03T08:17:23.732Z,100935.34
2022-08-03T08:19:53.285Z,100927.28
2022-08-03T08:22:30.038Z,100931.88
2022-08-03T08:24:58.868Z,100930.94
2022-08-03T08:27:26.860Z,100928.66
2022-08-03T08:29:58.870Z,100923.78
2022-08-03T08:32:30.225Z,100924.56
2022-08-03T08:34:59.222Z,100929.22
2022-08-03T08:37:26.876Z,100924.72
2022-08-03T08:39:54.992Z,100921.88
2022-08-03T08:42:22.605Z,100921.88
2022-08-03T08:44:50.769Z,100929.63
2022-08-03T08:47:20.733Z,100925.03
2022-08-03T08:50:08.902Z,100930.97
2022-08-03T08:52:42.739Z,100920.81
2022-08-03T08:55:14.347Z,100927.47
2022-08-03T08:57:48.477Z,100931.19
2022-08-03T09:00:17.411Z,100931.44
2022-08-03T09:02:46.328Z,100927.16
2022-08-03T09:05:15.655Z,100917.88
2022-08-03T09:07:46.013Z,100923.06
2022-08-03T09:10:19.660Z,100920.81
2022-08-03T09:12:48.717Z,100919.16
2022-08-03T09:15:21.225Z,100908.44
2022-08-03T09:17:51.233Z,100908.91
2022-08-03T09:20:20.649Z,100910.97
2022-08-03T09:22:57.634Z,100906.97
2022-08-03T09:25:33.730Z,100908.34
2022-08-03T09:28:10.354Z,100911.94
2022-08-03T09:30:39.849Z,100915.16
2022-08-03T09:33:09.565Z,100911.13
2022-08-03T09:35:53.604Z,100913.50
2022-08-03T09:38:26.130Z,100909.19
2022-08-03T09:40:59.221Z,100906.94
2022-08-03T09:43:28.320Z,100909.59
2022-08-03T09:46:03.812Z,100901.56
2022-08-03T09:48:33.208Z,100910.41
2022-08-03T09:51:13.378Z,100900.94
2022-08-03T09:53:59.641Z,100910.41
2022-08-03T09:56:42.449Z,100907.44
2022-08-03T09:59:10.862Z,100901.78
2022-08-03T10:01:41.552Z,100908.78
2022-08-03T10:04:17.760Z,100906.81
2022-08-03T10:06:46.453Z,100896.81
2022-08-03T10:09:16.904Z,100896.22
2022-08-03T10:11:46.815Z,100899.72
2022-08-03T10:14:18.865Z,100896.63
2022-08-03T10:16:48.539Z,100898.50
2022-08-03T10:19:16.463Z,100892.00
2022-08-03T10:21:56.152Z,100898.25
2022-08-03T10:24:29.030Z,100904.34
2022-08-03T10:27:03.722Z,100899.09
2022-08-03T10:29:35.767Z,100895.06
2022-08-03T10:32:08.534Z,100888.34
2022-08-03T10:34:44.398Z,100886.22
2022-08-03T10:37:16.000Z,100879.84
2022-08-03T10:39:54.116Z,100876.72
2022-08-03T10:42:27.063Z,100880.22
2022-08-03T10:45:04.722Z,100875.44
2022-08-03T10:47:34.134Z,100875.94
2022-08-03T10:50:02.868Z,100877.09
2022-08-03T10:52:38.159Z,100874.47
2022-08-03T10:55:49.372Z,100878.72
2022-08-03T10:58:30.296Z,100864.63
2022-08-03T11:00:58.571Z,100866.00
2022-08-03T11:03:26.354Z,100865.19
2022-08-03T11:05:55.868Z,100874.69
2022-08-03T11:08:34.849Z,100868.69
2022-08-03T11:11:29.478Z,100866.47
2022-08-03T11:14:04.460Z,100864.97
2022-08-03T11:16:35.808Z,100861.00
2022-08-03T11:19:05.862Z,100852.16
2022-08-03T11:21:59.162Z,100857.75
2022-08-03T11:25:00.641Z,100863.09
2022-08-03T11:27:38.740Z,100857.28
2022-08-03T11:30:09.874Z,100855.38
2022-08-03T11:32:56.248Z,100855.03
2022-08-03T11:35:25.332Z,100854.91
2022-08-03T11:38:07.142Z,100840.94
2022-08-03T11:40:37.756Z,100858.22
2022-08-03T11:43:08.782Z,100846.09
2022-08-03T11:45:37.814Z,100849.44
2022-08-03T11:48:16.046Z,100843.56
2022-08-03T11:50:45.283Z,100840.16
2022-08-03T11:53:17.850Z,100838.31
2022-08-03T11:55:48.765Z,100848.97
2022-08-03T11:59:09.412Z,100847.31
2022-08-03T12:01:10.521Z,100850.44
2022-08-03T12:03:38.374Z,100845.19
2022-08-03T12:06:10.351Z,100843.41
2022-08-03T12:08:38.324Z,100840.13
2022-08-03T12:11:08.661Z,100843.41
2022-08-03T12:14:33.013Z,100833.91
2022-08-03T12:16:30.631Z,100831.56
2022-08-03T12:18:59.641Z,100829.88
2022-08-03T12:21:27.388Z,100829.47
2022-08-03T12:24:00.022Z,100833.69
2022-08-03T12:26:31.186Z,100828.69
2022-08-03T12:29:00.085Z,100832.75
2022-08-03T12:31:27.749Z,100838.94
2022-08-03T12:33:59.028Z,100824.56
2022-08-03T12:36:28.788Z,100826.06
2022-08-03T12:38:58.168Z,100831.38
2022-08-03T12:41:31.799Z,100826.06
2022-08-03T12:44:00.739Z,100822.84
2022-08-03T12:46:34.062Z,100829.22
2022-08-03T12:49:07.712Z,100830.66
2022-08-03T12:51:37.756Z,100823.69
2022-08-03T12:54:06.199Z,100827.81
2022-08-03T12:56:33.865Z,100830.97
2022-08-03T12:59:25.198Z,100819.53
2022-08-03T13:02:00.356Z,100814.75
2022-08-03T13:04:30.749Z,100818.34
2022-08-03T13:07:03.438Z,100815.31
2022-08-03T13:09:33.064Z,100803.13
2022-08-03T13:12:08.395Z,100798.28
2022-08-03T13:14:37.481Z,100807.47
2022-08-03T13:17:06.944Z,100820.69
2022-08-03T13:19:34.934Z,100813.88
2022-08-03T13:22:04.181Z,100815.66
2022-08-03T13:24:33.494Z,100809.31
2022-08-03T13:28:01.990Z,100813.16
2022-08-03T13:29:52.790Z,100810.56
2022-08-03T13:32:20.659Z,100812.63
2022-08-03T13:34:48.486Z,100805.41
2022-08-03T13:37:16.679Z,100807.47
2022-08-03T13:39:58.078Z,100798.78
2022-08-03T13:42:28.614Z,100784.63
2022-08-03T13:44:57.671Z,100792.81
2022-08-03T13:47:25.403Z,100791.53
2022-08-03T13:50:00.432Z,100788.28
2022-08-03T13:52:31.824Z,100783.72
2022-08-03T13:54:59.794Z,100784.56
2022-08-03T13:58:06.645Z,100782.22
2022-08-03T14:00:27.480Z,100785.50
2022-08-03T14:03:03.819Z,100776.34
2022-08-03T14:05:32.599Z,100777.63
2022-08-03T14:08:04.043Z,100786.78
2022-08-03T14:10:32.802Z,100780.06
2022-08-03T14:13:02.632Z,100771.94
2022-08-03T14:15:31.980Z,100777.44
2022-08-03T14:18:05.088Z,100772.44
2022-08-03T14:20:36.635Z,100765.16
2022-08-03T14:23:05.286Z,100770.38
2022-08-03T14:25:43.638Z,100768.72
2022-08-03T14:28:18.881Z,100765.91
2022-08-03T14:30:48.444Z,100766.31
2022-08-03T14:33:16.396Z,100774.25
2022-08-03T14:35:44.035Z,100764.91
2022-08-03T14:38:11.665Z,100765.88
2022-08-03T14:40:39.357Z,100764.25
2022-08-03T14:43:06.962Z,100762.59
2022-08-03T14:45:34.850Z,100759.69
2022-08-03T14:50:10.491Z,100758.22
2022-08-03T14:50:55.071Z,100753.09
2022-08-03T14:53:22.902Z,100755.84
2022-08-03T14:55:51.861Z,100759.56
2022-08-03T14:58:21.548Z,100751.38
2022-08-03T15:00:50.668Z,100748.31
2022-08-03T15:03:22.959Z,100738.75
2022-08-03T15:05:51.614Z,100747.31
2022-08-03T15:08:19.273Z,100744.59
2022-08-03T15:10:46.930Z,100740.91
2022-08-03T15:13:17.492Z,100735.34
2022-08-03T15:15:45.199Z,100739.88
2022-08-03T15:18:12.951Z,100727.28
2022-08-03T15:20:46.576Z,100730.59
2022-08-03T15:23:16.239Z,100729.97
2022-08-03T15:26:28.678Z,100727.75
2022-08-03T15:28:32.726Z,100727.91
2022-08-03T15:31:00.887Z,100730.97
2022-08-03T15:33:29.020Z,100723.63
2022-08-03T15:35:59.925Z,100726.69
2022-08-03T15:38:30.092Z,100728.16
2022-08-03T15:40:58.915Z,100724.72
2022-08-03T15:43:26.543Z,100721.84
2022-08-03T15:46:26.646Z,100724.19
2022-08-03T15:48:42.017Z,100730.31
2022-08-03T15:51:12.309Z,100727.06
2022-08-03T15:53:39.923Z,100718.28
2022-08-03T15:56:13.238Z,100713.41
2022-08-03T15:59:09.545Z,100724.81
2022-08-03T16:01:31.379Z,100717.72
2022-08-03T16:03:59.024Z,100717.09
2022-08-03T16:06:35.343Z,100715.50
2022-08-03T16:09:24.358Z,100717.38
2022-08-03T16:11:53.746Z,100718.28
2022-08-03T16:14:34.371Z,100724.09
2022-08-03T16:17:05.786Z,100711.97
2022-08-03T16:19:33.628Z,100718.63
2022-08-03T16:22:02.521Z,100724.59
2022-08-03T16:24:31.255Z,100721.84
2022-08-03T16:27:00.521Z,100718.09
2022-08-03T16:29:29.400Z,100718.34
2022-08-03T16:31:57.105Z,100722.28
2022-08-03T16:34:24.741Z,100729.88
2022-08-03T16:36:52.431Z,100722.50
2022-08-03T16:39:21.411Z,100718.31
2022-08-03T16:41:54.508Z,100717.25
2022-08-03T16:44:29.880Z,100716.31
2022-08-03T16:46:57.587Z,100708.56
2022-08-03T16:49:53.958Z,100720.59
2022-08-03T16:52:16.581Z,100714.16
2022-08-03T16:54:50.581Z,100715.22
2022-08-03T16:57:59.324Z,100723.03
2022-08-03T17:00:11.681Z,100718.44
2022-08-03T17:02:48.312Z,100723.06
2022-08-03T17:05:16.325Z,100720.47
2022-08-03T17:07:50.761Z,100716.25
2022-08-03T17:10:27.197Z,100721.75
2022-08-03T17:12:55.041Z,100720.09
2022-08-03T17:15:37.975Z,100723.25
2022-08-03T17:18:13.684Z,100720.31
2022-08-03T17:20:42.879Z,100720.50
2022-08-03T17:23:33.919Z,100725.97
2022-08-03T17:26:10.628Z,100725.16
2022-08-03T17:28:51.773Z,100720.25
2022-08-03T17:31:31.290Z,100717.75
2022-08-03T17:34:01.576Z,100720.91
2022-08-03T17:36:54.001Z,100726.50
2022-08-03T17:39:35.793Z,100722.09
2022-08-03T17:45:02.162Z,100729.25
2022-08-03T17:47:41.951Z,100732.91
2022-08-03T17:50:25.025Z,100729.63
2022-08-03T17:53:07.807Z,100734.41
2022-08-03T17:55:57.653Z,100735.56
2022-08-03T17:58:41.983Z,100732.81
2022-08-03T18:02:06.072Z,100734.28
2022-08-03T18:04:29.843Z,100737.44
2022-08-03T18:07:11.311Z,100736.97
2022-08-03T18:10:04.807Z,100736.81
2022-08-03T18:12:30.130Z,100739.47
2022-08-03T18:15:08.397Z,100738.84
2022-08-03T18:17:55.001Z,100747.91
2022-08-03T18:20:33.055Z,100737.38
2022-08-03T18:23:10.562Z,100739.22
2022-08-03T18:25:45.645Z,100736.97
2022-08-03T18:28:23.264Z,100741.59
2022-08-03T18:30:55.216Z,100742.22
2022-08-03T18:34:18.212Z,100742.41
2022-08-03T18:36:17.275Z,100743.75
2022-08-03T18:38:48.046Z,100734.75
2022-08-03T18:41:31.705Z,100737.88
2022-08-03T18:44:08.367Z,100748.06
2022-08-03T18:47:07.237Z,100746.44
2022-08-03T18:49:53.757Z,100745.94
2022-08-03T18:52:26.983Z,100745.47
2022-08-03T18:55:08.464Z,100755.63
2022-08-03T18:57:53.231Z,100754.38
2022-08-03T19:00:24.916Z,100751.06
2022-08-03T19:03:20.304Z,100754.03
2022-08-03T19:06:02.653Z,100752.72
2022-08-03T19:08:45.196Z,100766.22
2022-08-03T19:11:27.810Z,100761.28
2022-08-03T19:14:00.130Z,100758.66
2022-08-03T19:16:35.347Z,100766.03
2022-08-03T19:19:10.868Z,100766.88
2022-08-03T19:21:42.620Z,100773.75
2022-08-03T19:24:10.594Z,100770.66
2022-08-03T19:26:39.637Z,100775.25
2022-08-03T19:29:11.364Z,100771.63
2022-08-03T19:31:59.413Z,100773.13
2022-08-03T19:34:30.646Z,100773.78
2022-08-03T19:36:59.083Z,100781.81
2022-08-03T19:39:27.504Z,100776.25
2022-08-03T19:42:06.353Z,100767.69
2022-08-03T19:44:41.161Z,100777.41
2022-08-03T19:47:11.489Z,100779.84
2022-08-03T19:49:49.682Z,100774.41
2022-08-03T19:52:35.655Z,100784.09
2022-08-03T19:55:09.518Z,100777.81
2022-08-03T19:57:43.284Z,100788.84
2022-08-03T20:00:13.910Z,100782.25
2022-08-03T20:02:42.145Z,100782.41
2022-08-03T20:05:15.680Z,100785.03
2022-08-03T20:07:48.139Z,100790.41
2022-08-03T20:10:17.043Z,100785.84
2022-08-03T20:12:45.598Z,100786.47
2022-08-03T20:15:13.465Z,100789.09
2022-08-03T20:17:56.449Z,100788.09
2022-08-03T20:20:30.920Z,100786.28
2022-08-03T20:23:00.927Z,100784.47
2022-08-03T20:25:38.247Z,100786.22
2022-08-03T20:28:13.988Z,100789.97
2022-08-03T20:30:47.230Z,100787.00
2022-08-03T20:33:18.916Z,100791.25
2022-08-03T20:35:50.157Z,100789.91
2022-08-03T20:38:18.999Z,100799.44
2022-08-03T20:40:48.341Z,100796.66
2022-08-03T20:43:16.216Z,100803.06
2022-08-03T20:45:59.918Z,100800.59
2022-08-03T20:48:33.971Z,100798.94
2022-08-03T20:51:04.884Z,100803.50
2022-08-03T20:53:59.840Z,100798.88
2022-08-03T20:56:33.734Z,100800.34
2022-08-03T20:59:03.957Z,100799.88
2022-08-03T21:01:36.283Z,100796.56
2022-08-03T21:04:06.924Z,100798.53
2022-08-03T21:06:45.713Z,100803.78
2022-08-03T21:09:33.196Z,100796.88
2022-08-03T21:12:08.492Z,100794.44
2022-08-03T21:13:05.102Z,100724.59
2022-08-03T21:14:51.962Z,100793.44
2022-08-03T21:17:39.929Z,100799.13
2022-08-03T21:20:10.366Z,100794.34
2022-08-03T21:22:43.449Z,100803.97
2022-08-03T21:25:15.081Z,100791.81
2022-08-03T21:27:43.247Z,100796.97
2022-08-03T21:30:12.982Z,100793.16
2022-08-03T21:32:43.775Z,100796.06
2022-08-03T21:35:15.074Z,100791.59
2022-08-03T21:37:45.335Z,100798.75
2022-08-03T21:40:16.308Z,100792.03
2022-08-03T21:42:45.754Z,100790.72
2022-08-03T21:45:17.399Z,100788.25
2022-08-03T21:47:46.521Z,100791.97
2022-08-03T21:50:14.663Z,100793.41
2022-08-03T21:52:47.479Z,100799.63
2022-08-03T21:55:20.432Z,100791.38
2022-08-03T21:57:53.883Z,100790.91
2022-08-03T22:00:24.020Z,100793.69
2022-08-03T22:02:55.503Z,100791.50
2022-08-03T22:05:28.990Z,100789.03
2022-08-03T22:08:13.903Z,100790.50
2022-08-03T22:10:44.099Z,100796.38
2022-08-03T22:13:12.826Z,100796.97
2022-08-03T22:15:40.521Z,100788.44
2022-08-03T22:18:08.343Z,100792.97
2022-08-03T22:20:36.233Z,100792.78
2022-08-03T22:23:07.013Z,100784.75
2022-08-03T22:25:39.534Z,100792.56
2022-08-03T22:28:09.701Z,100789.88
2022-08-03T22:30:38.079Z,100795.28
2022-08-03T22:33:11.043Z,100796.19
2022-08-03T22:35:47.397Z,100794.84
2022-08-03T22:38:17.034Z,100797.16
2022-08-03T22:40:48.685Z,100801.97
2022-08-03T22:43:17.029Z,100801.47
2022-08-03T22:46:09.981Z,100807.34
2022-08-03T22:48:35.917Z,100816.00
2022-08-03T22:51:08.667Z,100806.81
2022-08-03T22:53:36.879Z,100810.72
2022-08-03T22:56:06.117Z,100811.66
2022-08-03T22:58:33.738Z,100802.72
